sensor_id;sensor_type;location;lat;lon;timestamp;pressure;altitude;pressure_sealevel;temperature;humidity
62122;BME280;48108;47.532;19.084;2024-01-15T04:56:16;68184.81;;;-3.30;100.00
62122;BME280;48108;47.532;19.084;2024-01-15T04:59:20;68121.31;;;-3.33;100.00
62122;BME280;48108;47.532;19.084;2024-01-15T05:02:26;68119.88;;;-3.37;100.00
62122;BME280;48108;47.532;19.084;2024-01-15T05:05:29;68118.44;;;-3.36;100.00
62122;BME280;48108;47.532;19.084;2024-01-15T05:08:32;68123.00;;;-3.32;100.00
62122;BME280;48108;47.532;19.084;2024-01-15T05:11:37;68131.03;;;-3.25;100.00
62122;BME280;48108;47.532;19.084;2024-01-15T05:14:40;68131.63;;;-3.24;100.00
62122;BME280;48108;47.532;19.084;2024-01-15T05:17:43;68129.97;;;-3.30;100.00
62122;BME280;48108;47.532;19.084;2024-01-15T05:20:46;68184.22;;;-3.31;100.00
62122;BME280;48108;47.532;19.084;2024-01-15T05:23:50;68161.78;;;-3.00;100.00
62122;BME280;48108;47.532;19.084;2024-01-15T05:26:53;68220.66;;;-2.96;100.00
62122;BME280;48108;47.532;19.084;2024-01-15T05:29:56;68146.88;;;-3.13;100.00
62122;BME280;48108;47.532;19.084;2024-01-15T05:32:59;68139.97;;;-3.19;100.00
62122;BME280;48108;47.532;19.084;2024-01-15T05:36:03;68211.47;;;-3.04;100.00
62122;BME280;48108;47.532;19.084;2024-01-15T05:39:06;68152.31;;;-3.10;100.00
62122;BME280;48108;47.532;19.084;2024-01-15T05:42:10;68147.09;;;-3.10;100.00
62122;BME280;48108;47.532;19.084;2024-01-15T05:45:14;68148.56;;;-3.11;100.00
62122;BME280;48108;47.532;19.084;2024-01-15T05:48:18;68141.13;;;-3.18;100.00
62122;BME280;48108;47.532;19.084;2024-01-15T05:51:21;68145.72;;;-3.14;100.00
62122;BME280;48108;47.532;19.084;2024-01-15T05:54:25;68139.97;;;-3.19;100.00
62122;BME280;48108;47.532;19.084;2024-01-15T05:57:29;68138.81;;;-3.20;100.00
62122;BME280;48108;47.532;19.084;2024-01-15T06:00:33;68131.38;;;-3.27;100.00
62122;BME280;48108;47.532;19.084;2024-01-15T06:03:38;68127.66;;;-3.32;100.00
62122;BME280;48108;47.532;19.084;2024-01-15T06:06:41;68123.06;;;-3.36;100.00
62122;BME280;48108;47.532;19.084;2024-01-15T06:09:44;68115.28;;;-3.41;100.00
62122;BME280;48108;47.532;19.084;2024-01-15T06:12:47;68121.63;;;-3.35;100.00
62122;BME280;48108;47.532;19.084;2024-01-15T06:15:51;68130.78;;;-3.27;100.00
62122;BME280;48108;47.532;19.084;2024-01-15T06:18:54;68118.44;;;-3.36;100.00
62122;BME280;48108;47.532;19.084;2024-01-15T06:21:57;68125.63;;;-3.32;100.00
62122;BME280;48108;47.532;19.084;2024-01-15T06:25:01;68140.88;;;-3.21;100.00
62122;BME280;48108;47.532;19.084;2024-01-15T06:28:04;68150.63;;;-3.12;100.00
62122;BME280;48108;47.532;19.084;2024-01-15T06:31:07;68138.25;;;-3.21;100.00
62122;BME280;48108;47.532;19.084;2024-01-15T06:34:11;68131.94;;;-3.26;100.00
62122;BME280;48108;47.532;19.084;2024-01-15T06:37:15;68131.63;;;-3.24;100.00
62122;BME280;48108;47.532;19.084;2024-01-15T06:40:18;68152.59;;;-3.08;100.00
62122;BME280;48108;47.532;19.084;2024-01-15T06:43:22;68170.41;;;-2.92;100.00
62122;BME280;48108;47.532;19.084;2024-01-15T06:46:25;68235.03;;;-2.83;100.00
62122;BME280;48108;47.532;19.084;2024-01-15T06:49:29;68185.31;;;-2.79;100.00
62122;BME280;48108;47.532;19.084;2024-01-15T06:52:34;68187.03;;;-2.77;100.00
62122;BME280;48108;47.532;19.084;2024-01-15T06:55:38;68190.78;;;-2.76;100.00
62122;BME280;48108;47.532;19.084;2024-01-15T06:58:42;68187.88;;;-2.74;100.00
62122;BME280;48108;47.532;19.084;2024-01-15T07:01:45;68195.91;;;-2.67;100.00
62122;BME280;48108;47.532;19.084;2024-01-15T07:04:50;68198.19;;;-2.65;100.00
62122;BME280;48108;47.532;19.084;2024-01-15T07:07:53;68202.03;;;-2.68;100.00
62122;BME280;48108;47.532;19.084;2024-01-15T07:10:57;68205.75;;;-2.63;100.00
62122;BME280;48108;47.532;19.084;2024-01-15T07:14:00;68216.00;;;-2.49;100.00
62122;BME280;48108;47.532;19.084;2024-01-15T07:17:03;68219.19;;;-2.48;100.00
62122;BME280;48108;47.532;19.084;2024-01-15T07:20:07;68215.16;;;-2.52;100.00
62122;BME280;48108;47.532;19.084;2024-01-15T07:23:13;68217.72;;;-2.47;100.00
62122;BME280;48108;47.532;19.084;2024-01-15T07:26:16;68228.13;;;-2.43;100.00
62122;BME280;48108;47.532;19.084;2024-01-15T07:29:19;68231.59;;;-2.40;100.00
62122;BME280;48108;47.532;19.084;2024-01-15T07:32:22;68235.84;;;-2.34;100.00
62122;BME280;48108;47.532;19.084;2024-01-15T07:35:25;68237.56;;;-2.32;100.00
62122;BME280;48108;47.532;19.084;2024-01-15T07:38:28;68239.88;;;-2.30;100.00
62122;BME280;48108;47.532;19.084;2024-01-15T07:41:34;68242.19;;;-2.28;100.00
62122;BME280;48108;47.532;19.084;2024-01-15T07:44:37;68237.56;;;-2.32;100.00
62122;BME280;48108;47.532;19.084;2024-01-15T07:47:40;68301.13;;;-2.24;100.00
62122;BME280;48108;47.532;19.084;2024-01-15T07:50:43;68303.16;;;-2.25;100.00
62122;BME280;48108;47.532;19.084;2024-01-15T07:53:47;68303.75;;;-2.24;100.00
62122;BME280;48108;47.532;19.084;2024-01-15T07:56:57;68298.00;;;-2.30;100.00
62122;BME280;48108;47.532;19.084;2024-01-15T08:00:02;68251.94;;;-2.19;100.00
62122;BME280;48108;47.532;19.084;2024-01-15T08:03:07;68247.03;;;-2.21;100.00
62122;BME280;48108;47.532;19.084;2024-01-15T08:06:10;68278.94;;;-1.95;100.00
62122;BME280;48108;47.532;19.084;2024-01-15T08:09:13;68318.59;;;-1.60;100.00
62122;BME280;48108;47.532;19.084;2024-01-15T08:12:16;68362.84;;;-1.21;100.00
62122;BME280;48108;47.532;19.084;2024-01-15T08:15:19;68395.06;;;-0.92;100.00
62122;BME280;48108;47.532;19.084;2024-01-15T08:18:22;68420.38;;;-0.70;100.00
62122;BME280;48108;47.532;19.084;2024-01-15T08:21:26;68447.66;;;-0.43;100.00
62122;BME280;48108;47.532;19.084;2024-01-15T08:24:32;68481.94;;;-0.15;100.00
62122;BME280;48108;47.532;19.084;2024-01-15T08:27:36;68530.03;;;0.26;100.00
62122;BME280;48108;47.532;19.084;2024-01-15T08:30:39;68568.63;;;0.60;100.00
62122;BME280;48108;47.532;19.084;2024-01-15T08:33:42;68575.78;;;0.68;100.00
62122;BME280;48108;47.532;19.084;2024-01-15T08:36:45;68582.13;;;0.74;100.00
62122;BME280;48108;47.532;19.084;2024-01-15T08:39:48;68639.41;;;0.74;100.00
62122;BME280;48108;47.532;19.084;2024-01-15T08:42:54;68622.19;;;1.07;100.00
62122;BME280;48108;47.532;19.084;2024-01-15T08:45:57;68639.16;;;1.25;100.00
62122;BME280;48108;47.532;19.084;2024-01-15T08:49:01;68703.97;;;1.31;100.00
62122;BME280;48108;47.532;19.084;2024-01-15T08:52:06;68726.16;;;1.53;100.00
62122;BME280;48108;47.532;19.084;2024-01-15T08:55:10;68697.16;;;1.74;100.00
62122;BME280;48108;47.532;19.084;2024-01-15T08:58:13;68758.47;;;1.81;100.00
62122;BME280;48108;47.532;19.084;2024-01-15T09:01:16;68712.72;;;1.88;100.00
62122;BME280;48108;47.532;19.084;2024-01-15T09:04:20;68792.25;;;2.09;100.00
62122;BME280;48108;47.532;19.084;2024-01-15T09:07:23;68791.94;;;2.11;100.00
62122;BME280;48108;47.532;19.084;2024-01-15T09:10:30;68732.91;;;2.06;100.00
62122;BME280;48108;47.532;19.084;2024-01-15T09:13:33;68759.69;;;2.32;100.00
62122;BME280;48108;47.532;19.084;2024-01-15T09:16:36;68781.69;;;2.46;100.00
62122;BME280;48108;47.532;19.084;2024-01-15T09:19:39;68794.03;;;2.60;100.00
62122;BME280;48108;47.532;19.084;2024-01-15T09:22:43;68789.13;;;2.58;100.00
62122;BME280;48108;47.532;19.084;2024-01-15T09:25:47;68867.34;;;2.76;100.00
62122;BME280;48108;47.532;19.084;2024-01-15T09:28:52;68818.63;;;2.79;100.00
62122;BME280;48108;47.532;19.084;2024-01-15T09:31:55;68815.31;;;2.83;97.94
62122;BME280;48108;47.532;19.084;2024-01-15T09:34:58;68804.09;;;2.71;96.19
62122;BME280;48108;47.532;19.084;2024-01-15T09:38:02;68874.28;;;2.82;96.73
62122;BME280;48108;47.532;19.084;2024-01-15T09:41:06;68832.97;;;2.97;96.27
62122;BME280;48108;47.532;19.084;2024-01-15T09:44:10;68822.34;;;2.85;94.30
62122;BME280;48108;47.532;19.084;2024-01-15T09:47:15;68831.81;;;2.95;93.98
62122;BME280;48108;47.532;19.084;2024-01-15T09:50:18;68852.09;;;3.09;92.65
62122;BME280;48108;47.532;19.084;2024-01-15T09:53:23;68840.22;;;3.01;93.50
62122;BME280;48108;47.532;19.084;2024-01-15T09:56:28;68842.53;;;3.03;92.43
62122;BME280;48108;47.532;19.084;2024-01-15T09:59:32;68852.94;;;3.12;90.01
62122;BME280;48108;47.532;19.084;2024-01-15T10:02:35;68839.91;;;3.03;90.33
62122;BME280;48108;47.532;19.084;2024-01-15T10:05:39;68860.09;;;3.21;88.47
62122;BME280;48108;47.532;19.084;2024-01-15T10:08:43;68846.56;;;3.06;88.63
62122;BME280;48108;47.532;19.084;2024-01-15T10:11:49;68852.03;;;3.13;88.16
62122;BME280;48108;47.532;19.084;2024-01-15T10:14:53;68858.72;;;3.17;85.98
62122;BME280;48108;47.532;19.084;2024-01-15T10:17:56;68870.84;;;3.28;86.12
62122;BME280;48108;47.532;19.084;2024-01-15T10:20:59;68881.22;;;3.37;84.10
62122;BME280;48108;47.532;19.084;2024-01-15T10:24:04;68890.13;;;3.47;83.00
62122;BME280;48108;47.532;19.084;2024-01-15T10:27:08;68910.91;;;3.66;81.69
62122;BME280;48108;47.532;19.084;2024-01-15T10:30:12;68920.50;;;3.72;78.86
62122;BME280;48108;47.532;19.084;2024-01-15T10:33:22;68928.00;;;3.78;78.47
62122;BME280;48108;47.532;19.084;2024-01-15T10:36:29;68929.16;;;3.79;78.84
62122;BME280;48108;47.532;19.084;2024-01-15T10:39:32;68933.78;;;3.83;76.83
62122;BME280;48108;47.532;19.084;2024-01-15T10:42:35;68930.31;;;3.80;77.69
62122;BME280;48108;47.532;19.084;2024-01-15T10:45:38;68940.16;;;3.89;76.59
62122;BME280;48108;47.532;19.084;2024-01-15T10:48:42;68932.63;;;3.82;76.23
62122;BME280;48108;47.532;19.084;2024-01-15T10:51:45;68923.63;;;3.77;77.25
62122;BME280;48108;47.532;19.084;2024-01-15T10:54:53;68932.63;;;3.82;78.43
62122;BME280;48108;47.532;19.084;2024-01-15T10:57:57;68915.56;;;3.70;78.25
62122;BME280;48108;47.532;19.084;2024-01-15T11:01:02;68996.22;;;3.90;77.99
62122;BME280;48108;47.532;19.084;2024-01-15T11:04:07;68943.63;;;3.92;77.09
62122;BME280;48108;47.532;19.084;2024-01-15T11:07:11;68940.16;;;3.89;77.61
62122;BME280;48108;47.532;19.084;2024-01-15T11:10:40;68965.00;;;4.11;77.36
62122;BME280;48108;47.532;19.084;2024-01-15T11:13:46;68984.97;;;4.26;76.62
62122;BME280;48108;47.532;19.084;2024-01-15T11:16:56;69002.78;;;4.47;75.99
62122;BME280;48108;47.532;19.084;2024-01-15T11:19:59;69012.72;;;4.51;75.43
62122;BME280;48108;47.532;19.084;2024-01-15T11:23:02;69016.19;;;4.54;74.98
62122;BME280;48108;47.532;19.084;2024-01-15T11:26:33;69042.44;;;4.80;74.28
62122;BME280;48108;47.532;19.084;2024-01-15T11:29:37;69035.50;;;4.73;75.25
62122;BME280;48108;47.532;19.084;2024-01-15T11:32:40;69073.94;;;5.10;73.85
62122;BME280;48108;47.532;19.084;2024-01-15T11:35:49;69106.41;;;5.34;71.03
62122;BME280;48108;47.532;19.084;2024-01-15T11:38:53;69142.84;;;5.66;69.28
62122;BME280;48108;47.532;19.084;2024-01-15T11:42:01;69176.69;;;5.98;68.37
62122;BME280;48108;47.532;19.084;2024-01-15T11:45:05;69203.31;;;6.22;66.53
62122;BME280;48108;47.532;19.084;2024-01-15T11:48:15;69242.47;;;6.54;63.77
62122;BME280;48108;47.532;19.084;2024-01-15T11:51:21;69229.38;;;6.45;63.15
62122;BME280;48108;47.532;19.084;2024-01-15T11:54:25;69258.44;;;6.66;61.89
62122;BME280;48108;47.532;19.084;2024-01-15T11:57:54;69290.19;;;6.98;61.75
62122;BME280;48108;47.532;19.084;2024-01-15T12:00:57;69378.44;;;7.27;59.28
62122;BME280;48108;47.532;19.084;2024-01-15T12:04:01;69375.72;;;7.71;57.51
62122;BME280;48108;47.532;19.084;2024-01-15T12:07:05;69329.84;;;7.36;56.86
62122;BME280;48108;47.532;19.084;2024-01-15T12:10:13;69333.66;;;7.37;57.45
62122;BME280;48108;47.532;19.084;2024-01-15T12:13:20;69351.06;;;7.52;54.73
62122;BME280;48108;47.532;19.084;2024-01-15T12:16:23;69457.34;;;7.97;53.87
62122;BME280;48108;47.532;19.084;2024-01-15T12:19:26;69402.63;;;7.98;51.29
62122;BME280;48108;47.532;19.084;2024-01-15T12:22:30;69454.28;;;8.43;50.09
62122;BME280;48108;47.532;19.084;2024-01-15T12:25:46;69536.66;;;8.64;48.67
62122;BME280;48108;47.532;19.084;2024-01-15T12:28:52;69511.16;;;8.93;47.89
62122;BME280;48108;47.532;19.084;2024-01-15T12:31:59;69671.78;;;10.32;44.97
62122;BME280;48108;47.532;19.084;2024-01-15T12:35:02;69664.22;;;10.26;42.72
62122;BME280;48108;47.532;19.084;2024-01-15T12:38:07;69756.91;;;11.09;40.96
62122;BME280;48108;47.532;19.084;2024-01-15T12:41:10;69727.25;;;10.83;41.10
62122;BME280;48108;47.532;19.084;2024-01-15T12:44:13;69736.56;;;10.92;40.76
62122;BME280;48108;47.532;19.084;2024-01-15T12:47:16;69859.63;;;11.97;38.23
62122;BME280;48108;47.532;19.084;2024-01-15T12:50:24;70051.84;;;13.19;36.10
62122;BME280;48108;47.532;19.084;2024-01-15T12:53:27;69981.91;;;13.05;35.69
62122;BME280;48108;47.532;19.084;2024-01-15T12:56:30;69978.03;;;13.04;35.60
62122;BME280;48108;47.532;19.084;2024-01-15T12:59:33;70063.81;;;13.74;34.22
62122;BME280;48108;47.532;19.084;2024-01-15T13:02:37;70118.84;;;14.25;33.83
62122;BME280;48108;47.532;19.084;2024-01-15T13:05:41;70163.75;;;14.64;32.28
62122;BME280;48108;47.532;19.084;2024-01-15T13:08:45;70164.34;;;14.65;33.73
62122;BME280;48108;47.532;19.084;2024-01-15T13:11:49;70048.34;;;13.63;33.48
62122;BME280;48108;47.532;19.084;2024-01-15T13:14:52;69907.72;;;12.37;35.81
62122;BME280;48108;47.532;19.084;2024-01-15T13:17:55;69821.56;;;11.62;37.22
62122;BME280;48108;47.532;19.084;2024-01-15T13:20:58;69647.13;;;10.08;40.09
62122;BME280;48108;47.532;19.084;2024-01-15T13:24:03;69294.03;;;6.99;47.64
62122;BME280;48108;47.532;19.084;2024-01-15T13:27:08;69212.34;;;6.27;50.97
62122;BME280;48108;47.532;19.084;2024-01-15T13:30:12;69173.22;;;5.95;52.80
62122;BME280;48108;47.532;19.084;2024-01-15T13:33:15;69110.44;;;5.37;55.90
62122;BME280;48108;47.532;19.084;2024-01-15T13:36:19;69090.44;;;5.22;57.05
62122;BME280;48108;47.532;19.084;2024-01-15T13:39:24;69110.75;;;4.91;58.07
62122;BME280;48108;47.532;19.084;2024-01-15T13:42:27;69033.78;;;4.72;59.38
62122;BME280;48108;47.532;19.084;2024-01-15T13:45:30;69011.81;;;4.52;60.06
62122;BME280;48108;47.532;19.084;2024-01-15T13:48:33;69006.59;;;4.48;61.77
62122;BME280;48108;47.532;19.084;2024-01-15T13:51:36;68985.22;;;4.29;61.81
62122;BME280;48108;47.532;19.084;2024-01-15T13:54:40;68974.25;;;4.19;62.39
62122;BME280;48108;47.532;19.084;2024-01-15T13:57:52;68965.22;;;4.14;62.94
62122;BME280;48108;47.532;19.084;2024-01-15T14:00:55;68949.06;;;3.99;63.37
62122;BME280;48108;47.532;19.084;2024-01-15T14:04:00;68955.41;;;4.05;64.71
62122;BME280;48108;47.532;19.084;2024-01-15T14:07:03;68937.50;;;3.89;65.52
62122;BME280;48108;47.532;19.084;2024-01-15T14:10:07;68936.44;;;3.83;66.09
62122;BME280;48108;47.532;19.084;2024-01-15T14:13:10;68920.50;;;3.72;66.97
62122;BME280;48108;47.532;19.084;2024-01-15T14:16:13;68939.56;;;3.89;67.39
62122;BME280;48108;47.532;19.084;2024-01-15T14:19:16;68926.88;;;3.77;66.58
62122;BME280;48108;47.532;19.084;2024-01-15T14:22:19;68927.44;;;3.78;66.19
62122;BME280;48108;47.532;19.084;2024-01-15T14:25:22;68933.19;;;3.83;66.75
62122;BME280;48108;47.532;19.084;2024-01-15T14:28:27;68944.84;;;3.89;66.32
62122;BME280;48108;47.532;19.084;2024-01-15T14:31:30;68939.91;;;3.86;65.91
62122;BME280;48108;47.532;19.084;2024-01-15T14:34:33;68930.31;;;3.80;66.94
62122;BME280;48108;47.532;19.084;2024-01-15T14:37:39;68936.09;;;3.85;66.47
62122;BME280;48108;47.532;19.084;2024-01-15T14:40:42;68928.00;;;3.78;67.44
62122;BME280;48108;47.532;19.084;2024-01-15T14:43:47;68923.06;;;3.76;67.20
62122;BME280;48108;47.532;19.084;2024-01-15T14:46:50;68916.44;;;3.68;68.14
62122;BME280;48108;47.532;19.084;2024-01-15T14:49:53;68921.72;;;3.68;68.38
62122;BME280;48108;47.532;19.084;2024-01-15T14:52:56;68967.31;;;3.64;69.23
62122;BME280;48108;47.532;19.084;2024-01-15T14:55:59;68904.09;;;3.55;68.76
62122;BME280;48108;47.532;19.084;2024-01-15T14:59:02;68891.63;;;3.46;70.44
62122;BME280;48108;47.532;19.084;2024-01-15T15:02:05;68894.84;;;3.47;69.61
62122;BME280;48108;47.532;19.084;2024-01-15T15:05:12;68883.19;;;3.41;69.50
62122;BME280;48108;47.532;19.084;2024-01-15T15:08:16;68933.47;;;3.36;70.33
62122;BME280;48108;47.532;19.084;2024-01-15T15:11:19;68871.72;;;3.26;70.91
62122;BME280;48108;47.532;19.084;2024-01-15T15:14:22;68873.13;;;3.30;69.85
62122;BME280;48108;47.532;19.084;2024-01-15T15:17:26;68869.34;;;3.29;69.54
62122;BME280;48108;47.532;19.084;2024-01-15T15:20:29;68868.28;;;3.23;70.78
62122;BME280;48108;47.532;19.084;2024-01-15T15:23:32;68862.16;;;3.20;70.21
62122;BME280;48108;47.532;19.084;2024-01-15T15:26:35;68859.28;;;3.17;70.53
62122;BME280;48108;47.532;19.084;2024-01-15T15:29:39;68855.25;;;3.14;69.17
62122;BME280;48108;47.532;19.084;2024-01-15T15:32:42;68848.56;;;3.10;69.17
62122;BME280;48108;47.532;19.084;2024-01-15T15:35:46;68911.81;;;3.15;68.92
62122;BME280;48108;47.532;19.084;2024-01-15T15:38:50;68850.97;;;3.08;69.51
62122;BME280;48108;47.532;19.084;2024-01-15T15:41:56;68840.56;;;2.99;70.50
62122;BME280;48108;47.532;19.084;2024-01-15T15:44:59;68832.72;;;2.94;71.24
62122;BME280;48108;47.532;19.084;2024-01-15T15:48:05;68829.84;;;2.91;71.31
62122;BME280;48108;47.532;19.084;2024-01-15T15:51:09;68816.88;;;2.78;72.28
62122;BME280;48108;47.532;19.084;2024-01-15T15:54:13;68817.72;;;2.81;71.64
62122;BME280;48108;47.532;19.084;2024-01-15T15:57:16;68813.09;;;2.77;72.63
62122;BME280;48108;47.532;19.084;2024-01-15T16:00:19;68806.44;;;2.73;73.81
62122;BME280;48108;47.532;19.084;2024-01-15T16:03:23;68806.19;;;2.70;73.56
62122;BME280;48108;47.532;19.084;2024-01-15T16:06:26;68800.66;;;2.68;74.57
62122;BME280;48108;47.532;19.084;2024-01-15T16:09:30;68860.97;;;2.70;73.77
62122;BME280;48108;47.532;19.084;2024-01-15T16:12:33;68796.03;;;2.64;74.44
62122;BME280;48108;47.532;19.084;2024-01-15T16:15:37;68802.72;;;2.67;73.58
62122;BME280;48108;47.532;19.084;2024-01-15T16:18:40;68806.75;;;2.71;73.40
62122;BME280;48108;47.532;19.084;2024-01-15T16:22:03;68799.56;;;2.62;73.20
62122;BME280;48108;47.532;19.084;2024-01-15T16:25:26;68802.13;;;2.67;72.33
62122;BME280;48108;47.532;19.084;2024-01-15T16:28:30;68787.13;;;2.54;73.72
62122;BME280;48108;47.532;19.084;2024-01-15T16:31:33;68789.13;;;2.58;72.86
62122;BME280;48108;47.532;19.084;2024-01-15T16:34:37;68783.66;;;2.50;72.71
62122;BME280;48108;47.532;19.084;2024-01-15T16:37:40;68793.22;;;2.57;71.73
62122;BME280;48108;47.532;19.084;2024-01-15T16:40:43;68786.81;;;2.56;72.13
62122;BME280;48108;47.532;19.084;2024-01-15T16:43:46;68786.22;;;2.55;71.68
62122;BME280;48108;47.532;19.084;2024-01-15T16:46:51;68792.66;;;2.56;71.69
62122;BME280;48108;47.532;19.084;2024-01-15T16:49:55;68787.69;;;2.54;72.25
62122;BME280;48108;47.532;19.084;2024-01-15T16:52:58;68778.47;;;2.46;72.12
62122;BME280;48108;47.532;19.084;2024-01-15T16:56:01;68771.53;;;2.40;72.70
